This is the latest recevied weather packets stored in our database for station/object OK3FM-14. If no packets are shown the sender has not sent any weather packets the latest 10 day(s).
| Time | Temp. | Humidity | Pressure | Rain* | Wind** | Luminosity | Snow |
|---|---|---|---|---|---|---|---|
| 1787752041 | 20.56° C | 62% | 1020.8 hPa | - | - | - | - |
| 1787751442 | 20.56° C | 61% | 1020.7 hPa | - | - | - | - |
| 1787750841 | 20° C | 63% | 1020.7 hPa | - | - | - | - |
| 1787750241 | 20.56° C | 62% | 1020.7 hPa | - | - | - | - |
| 1787749641 | 20° C | 63% | 1020.7 hPa | - | - | - | - |
| 1787749041 | 20° C | 63% | 1020.7 hPa | - | - | - | - |
| 1787748441 | 20.56° C | 62% | 1020.8 hPa | - | - | - | - |
| 1787747841 | 20° C | 63% | 1020.9 hPa | - | - | - | - |
| 1787747241 | 18.89° C | 67% | 1021 hPa | - | - | - | - |
| 1787746641 | 18.89° C | 68% | 1021 hPa | - | - | - | - |
| 1787746042 | 18.89° C | 67% | 1021 hPa | - | - | - | - |
| 1787745441 | 19.44° C | 65% | 1020.8 hPa | - | - | - | - |
| 1787744842 | 18.89° C | 65% | 1020.6 hPa | - | - | - | - |
| 1787744241 | 19.44° C | 66% | 1020.8 hPa | - | - | - | - |
| 1787743643 | 18.89° C | 67% | 1020.8 hPa | - | - | - | - |
| 1787743042 | 18.89° C | 66% | 1020.9 hPa | - | - | - | - |
| 1787741842 | 18.33° C | 67% | 1020.9 hPa | - | - | - | - |
| 1787741242 | 18.89° C | 65% | 1020.9 hPa | - | - | - | - |
| 1787740641 | 18.89° C | 67% | 1020.9 hPa | - | - | - | - |
| 1787740041 | 18.33° C | 66% | 1020.9 hPa | - | - | - | - |
| 1787739451 | 18.89° C | 67% | 1020.9 hPa | - | - | - | - |
| 1787738836 | 18.33° C | 67% | 1020.8 hPa | - | - | - | - |
| 1787738235 | 17.78° C | 69% | 1021 hPa | - | - | - | - |
| 1787737635 | 17.78° C | 69% | 1021 hPa | - | - | - | - |
| 1787737035 | 17.22° C | 69% | 1021 hPa | - | - | - | - |
* Rain since midnight (hover to see other rain measurements)
** Current wind speed in m/s (hover to see current wind gust speed)